Curtin, Oregon
Current Conditions -  °F | °C
As of 5:54 AM on Monday 20 Oct 2014 (Local Time) from KEUG Reporting Station
Light Rain Light Rain  
Wind Chill: 58°   Ceiling: 7500
Heat Index: 58°   Visibility: 8mi
Dew Point: 56°   Wind: 6mph
Humidity: 93%   Direction: 150°SSE
Pressure: 29.77"   Gusts: NA
Location:  43.72°N, 123.21°W
Report Text: KEUG 201254Z 15005KT 8SM -RA FEW014 SCT023 OVC075 14/13 A2977 RMK AO2 RAE16B38 SLP078 P0002 T01440133
Loading
Personal Weather Stations






























Interactive Weather Map
Tropical Storm Tracking
New forecast layout! Learn more

10-Day Weather Forecast

Advertisements
Track Severe Weather on mobile